Time;durP1;ratioP1;P1;durP2;ratioP2;P2;SDS_P1;SDS_P2;PMS_P1;PMS_P2;Temp;Humidity;BMP_temperature;BMP_pressure;BME280_temperature;BME280_humidity;BME280_pressure;Samples;Min_cycle;Max_cycle;Signal;HPM_P1;HPM_P2
2022/06/07 00:00:47;;;;;;;30.48;21.52;;;;;;;13.42;100.00;101244.38;5054718;28;20029;-57
2022/06/07 00:03:12;;;;;;;31.52;21.40;;;;;;;13.43;100.00;101235.59;5054473;28;20029;-57
2022/06/07 00:05:40;;;;;;;31.35;21.60;;;;;;;13.44;100.00;101235.56;5054748;28;20059;-58
2022/06/07 00:08:06;;;;;;;26.33;20.15;;;;;;;13.44;100.00;101232.09;5054798;28;20075;-57
2022/06/07 00:10:31;;;;;;;30.50;22.20;;;;;;;13.47;100.00;101240.78;5054895;28;20029;-57
2022/06/07 00:12:56;;;;;;;31.10;22.88;;;;;;;13.44;100.00;101230.31;5054852;28;20125;-58
2022/06/07 00:15:22;;;;;;;34.60;23.15;;;;;;;13.34;100.00;101210.34;5054464;28;20037;-57
2022/06/07 00:17:47;;;;;;;33.15;23.95;;;;;;;13.45;100.00;101232.06;5054694;28;20036;-57
2022/06/07 00:20:13;;;;;;;32.20;23.42;;;;;;;13.45;100.00;101229.44;5054580;28;20142;-58
2022/06/07 00:22:39;;;;;;;34.63;24.35;;;;;;;13.41;100.00;101226.88;5054745;28;20432;-58
2022/06/07 00:25:09;;;;;;;34.22;24.02;;;;;;;13.45;100.00;101226.81;5054837;28;20040;-57
2022/06/07 00:27:35;;;;;;;34.28;25.10;;;;;;;13.47;100.00;101219.75;5054331;28;20029;-57
2022/06/07 00:30:01;;;;;;;35.95;24.95;;;;;;;13.46;100.00;101212.75;5054796;28;20565;-57
2022/06/07 00:32:26;;;;;;;36.83;25.23;;;;;;;13.47;100.00;101217.13;5054550;28;20068;-57
2022/06/07 00:34:51;;;;;;;33.92;24.05;;;;;;;13.45;100.00;101218.91;5058325;28;20036;-58
2022/06/07 00:37:17;;;;;;;35.05;23.70;;;;;;;13.44;100.00;101211.06;5058423;28;20079;-58
2022/06/07 00:39:42;;;;;;;33.22;24.30;;;;;;;13.39;100.00;101205.88;5058214;28;20116;-58
2022/06/07 00:42:09;;;;;;;32.05;23.27;;;;;;;13.41;100.00;101203.22;5058140;28;20035;-58
2022/06/07 00:44:46;;;;;;;33.10;23.25;;;;;;;13.40;100.00;101198.84;5057911;28;20127;-58
2022/06/07 00:47:19;;;;;;;34.72;22.40;;;;;;;13.34;100.00;101202.47;5058370;28;20035;-57
2022/06/07 00:49:49;;;;;;;28.52;22.30;;;;;;;13.35;100.00;101190.19;5058065;28;20420;-58
2022/06/07 00:52:16;;;;;;;28.83;21.50;;;;;;;13.32;100.00;101201.66;5058131;28;20396;-57
2022/06/07 00:54:41;;;;;;;31.77;22.27;;;;;;;13.27;100.00;101197.38;5056708;28;20399;-58
2022/06/07 00:57:07;;;;;;;29.52;21.42;;;;;;;13.19;100.00;101194.88;5057429;28;20037;-58
2022/06/07 00:59:33;;;;;;;27.27;21.20;;;;;;;13.17;100.00;101194.03;5058179;28;20036;-57
2022/06/07 01:01:59;;;;;;;31.40;20.77;;;;;;;13.16;100.00;101187.91;5057853;28;20028;-57
2022/06/07 01:04:24;;;;;;;27.00;19.77;;;;;;;13.19;100.00;101187.84;5057702;28;20039;-57
2022/06/07 01:12:21;;;;;;;28.15;19.95;;;;;;;13.26;100.00;101185.97;5057918;28;20090;-56
2022/06/07 01:14:46;;;;;;;26.50;19.73;;;;;;;13.27;100.00;101177.19;5057596;28;20037;-56
2022/06/07 01:17:12;;;;;;;22.15;17.05;;;;;;;13.22;100.00;101179.03;5058331;28;20025;-58
2022/06/07 01:19:37;;;;;;;21.73;17.20;;;;;;;13.28;100.00;101176.31;5057437;28;20440;-57
2022/06/07 01:22:03;;;;;;;25.20;16.00;;;;;;;13.22;100.00;101182.53;5057372;28;20047;-57
2022/06/07 01:24:28;;;;;;;22.10;16.88;;;;;;;13.22;100.00;101179.03;5057414;28;20068;-56
2022/06/07 01:26:54;;;;;;;22.85;15.50;;;;;;;13.21;100.00;101166.78;5057649;28;20041;-58
2022/06/07 01:29:19;;;;;;;22.50;15.55;;;;;;;13.22;100.00;101174.66;5057387;28;20036;-58
2022/06/07 01:31:45;;;;;;;20.30;16.55;;;;;;;13.18;100.00;101174.72;5057418;28;20454;-57
2022/06/07 01:34:11;;;;;;;17.98;15.43;;;;;;;13.19;100.00;101176.47;5057253;28;20033;-58
2022/06/07 01:36:37;;;;;;;22.98;15.80;;;;;;;13.18;100.00;101174.72;5057149;28;20097;-58
2022/06/07 01:41:56;;;;;;;22.33;15.48;;;;;;;13.19;100.00;101173.84;5057454;28;20362;-58
2022/06/07 01:44:30;;;;;;;21.25;15.93;;;;;;;13.15;100.00;101174.81;5056091;28;20400;-58
2022/06/07 01:46:58;;;;;;;19.25;14.85;;;;;;;13.16;100.00;101163.41;5056639;28;20039;-58
2022/06/07 01:49:24;;;;;;;19.65;14.43;;;;;;;13.12;100.00;101164.31;5057118;28;20465;-58
2022/06/07 01:51:54;;;;;;;18.98;14.65;;;;;;;13.08;100.00;101160.00;5057064;28;20119;-58
2022/06/07 01:54:20;;;;;;;19.80;14.20;;;;;;;13.07;100.00;101159.16;5056442;28;20529;-58
2022/06/07 01:56:46;;;;;;;18.73;13.82;;;;;;;13.10;100.00;101159.09;5057184;28;20119;-58
2022/06/07 01:59:11;;;;;;;18.20;13.63;;;;;;;12.95;100.00;101146.25;5056636;28;20112;-58
2022/06/07 02:01:37;;;;;;;18.63;13.40;;;;;;;13.07;100.00;101155.66;5056616;28;20028;-58
2022/06/07 02:04:04;;;;;;;15.50;12.20;;;;;;;13.09;100.00;101152.09;5056645;28;20102;-58
2022/06/07 02:06:30;;;;;;;17.23;12.88;;;;;;;13.03;100.00;101154.84;5056932;28;20333;-58
2022/06/07 02:08:55;;;;;;;16.25;12.57;;;;;;;13.03;100.00;101154.84;5056712;28;20040;-58
2022/06/07 02:11:24;;;;;;;16.95;11.70;;;;;;;13.00;99.92;101151.41;5056815;28;20033;-58
2022/06/07 02:13:49;;;;;;;15.75;10.68;;;;;;;13.00;99.45;101154.88;5056417;28;20025;-58
2022/06/07 02:16:16;;;;;;;14.52;10.70;;;;;;;12.90;99.53;101150.72;5056228;28;20347;-58
2022/06/07 02:18:42;;;;;;;16.33;10.65;;;;;;;12.93;99.40;101145.41;5056350;28;20107;-58
2022/06/07 02:21:08;;;;;;;14.05;10.10;;;;;;;12.97;98.02;101148.84;5056238;28;20410;-58
2022/06/07 02:23:36;;;;;;;13.52;9.90;;;;;;;12.94;99.03;101154.16;5056210;28;20040;-58
2022/06/07 02:26:06;;;;;;;14.90;9.18;;;;;;;12.94;98.05;101144.50;5056320;28;20033;-58
2022/06/07 02:28:35;;;;;;;16.58;10.27;;;;;;;12.93;98.17;101141.91;5056078;28;20116;-58
2022/06/07 02:31:03;;;;;;;10.63;8.75;;;;;;;12.95;97.86;101143.63;5056228;28;20447;-58
2022/06/07 02:33:29;;;;;;;11.48;8.98;;;;;;;12.92;98.14;101142.81;5056421;28;20387;-58
2022/06/07 02:35:55;;;;;;;14.35;9.07;;;;;;;12.92;97.09;101146.28;5056020;28;20486;-57
2022/06/07 02:38:21;;;;;;;12.68;7.85;;;;;;;12.96;96.75;101137.47;5056099;28;20028;-58
2022/06/07 02:40:49;;;;;;;9.68;7.65;;;;;;;12.94;96.27;101139.25;5055946;28;20487;-58
2022/06/07 02:43:14;;;;;;;12.40;8.27;;;;;;;12.90;96.50;101132.31;5056303;28;20029;-58
2022/06/07 02:45:39;;;;;;;11.82;7.25;;;;;;;12.89;96.31;101131.44;5055968;28;20024;-58
2022/06/07 02:48:06;;;;;;;9.77;7.53;;;;;;;12.91;96.27;101131.44;5055735;28;20466;-58
2022/06/07 02:50:31;;;;;;;11.73;6.97;;;;;;;12.90;95.82;101127.94;5055840;28;20150;-58
2022/06/07 02:52:57;;;;;;;9.77;6.70;;;;;;;12.96;95.02;101128.72;5055702;28;20071;-58
2022/06/07 02:55:22;;;;;;;11.13;6.53;;;;;;;12.93;95.81;101132.28;5055368;28;20468;-58
2022/06/07 02:57:47;;;;;;;11.13;6.40;;;;;;;12.93;95.05;101134.91;5055856;28;20453;-58
2022/06/07 03:00:15;;;;;;;10.07;6.13;;;;;;;12.94;93.34;101126.13;5055528;28;20410;-58
2022/06/07 03:02:41;;;;;;;9.90;6.43;;;;;;;12.86;95.09;101123.63;5055349;28;20021;-58
2022/06/07 03:05:07;;;;;;;9.45;6.32;;;;;;;12.86;95.06;101128.88;5055665;28;20036;-58
2022/06/07 03:07:32;;;;;;;11.20;6.22;;;;;;;12.88;95.07;101129.72;5055960;28;20040;-58
2022/06/07 03:09:58;;;;;;;10.50;6.30;;;;;;;12.87;94.31;101129.75;5055816;28;20119;-58
2022/06/07 03:12:23;;;;;;;13.02;5.78;;;;;;;12.86;93.80;101133.25;5055601;28;20110;-58
2022/06/07 03:14:48;;;;;;;9.48;5.80;;;;;;;12.86;94.08;101135.88;5055442;28;20047;-58
2022/06/07 03:17:14;;;;;;;10.52;6.13;;;;;;;12.87;93.84;101146.38;5055194;28;20029;-58
2022/06/07 03:19:39;;;;;;;9.05;5.70;;;;;;;12.89;92.96;101143.72;5055126;28;20048;-58
2022/06/07 03:22:07;;;;;;;11.52;5.90;;;;;;;12.79;93.96;101152.66;5055420;28;20078;-58
2022/06/07 03:24:33;;;;;;;13.23;5.85;;;;;;;12.72;93.50;101141.41;5055256;28;20032;-58
2022/06/07 03:26:58;;;;;;;7.75;5.70;;;;;;;12.83;93.73;101164.84;5054991;28;20025;-58
2022/06/07 03:29:24;;;;;;;10.32;5.78;;;;;;;12.80;93.67;101163.16;5054736;28;20430;-57
2022/06/07 03:31:49;;;;;;;8.60;5.70;;;;;;;12.79;93.75;101152.66;5055128;28;20047;-58
2022/06/07 03:34:15;;;;;;;8.70;5.25;;;;;;;12.81;93.02;101151.72;5054892;28;20025;-58
2022/06/07 03:36:40;;;;;;;10.10;5.93;;;;;;;12.71;93.42;101147.53;5054939;28;20053;-58
2022/06/07 03:39:08;;;;;;;8.95;5.65;;;;;;;12.73;94.13;101160.66;5055248;28;20068;-58
2022/06/07 03:41:33;;;;;;;8.52;5.50;;;;;;;12.75;94.33;101157.09;5054856;28;20036;-58
2022/06/07 03:43:59;;;;;;;9.88;5.40;;;;;;;12.80;92.00;101157.03;5055027;28;20032;-56
2022/06/07 03:46:27;;;;;;;8.52;5.82;;;;;;;12.78;93.52;101161.44;5054737;28;20063;-56
2022/06/07 03:48:53;;;;;;;10.73;5.30;;;;;;;12.81;93.35;101164.84;5054826;28;20051;-56
2022/06/07 03:51:20;;;;;;;8.48;5.38;;;;;;;12.79;93.08;101166.66;5054855;28;20108;-57
2022/06/07 03:53:46;;;;;;;10.27;5.57;;;;;;;12.78;92.60;101175.44;5054839;28;20032;-57
2022/06/07 03:56:12;;;;;;;7.28;5.60;;;;;;;12.79;93.14;101176.31;5054729;28;20461;-57
2022/06/07 03:58:38;;;;;;;10.05;5.40;;;;;;;12.79;93.33;101173.69;5054776;28;20112;-57
2022/06/07 04:01:06;;;;;;;9.07;5.88;;;;;;;12.79;92.59;101169.28;5054663;28;20107;-58
2022/06/07 04:03:32;;;;;;;12.32;5.95;;;;;;;12.76;93.55;101179.84;5054741;28;20041;-58
2022/06/07 04:05:58;;;;;;;8.88;5.47;;;;;;;12.80;93.48;101181.53;5054656;28;20092;-58
2022/06/07 04:08:25;;;;;;;8.75;5.93;;;;;;;12.85;92.79;101170.94;5056417;28;20112;-58
2022/06/07 04:10:57;;;;;;;11.55;5.70;;;;;;;12.84;91.98;101166.56;5058774;28;20424;-58
2022/06/07 04:13:26;;;;;;;9.85;5.20;;;;;;;12.82;92.51;101184.09;5058729;28;20043;-59
2022/06/07 04:15:52;;;;;;;8.63;5.95;;;;;;;12.80;93.16;101175.41;5058605;28;20063;-58
2022/06/07 04:18:17;;;;;;;9.25;6.20;;;;;;;12.82;93.33;101177.09;5058649;28;20041;-58
2022/06/07 04:20:43;;;;;;;9.70;5.40;;;;;;;12.86;92.59;101178.78;5058805;28;20032;-58
2022/06/07 04:23:14;;;;;;;8.80;5.93;;;;;;;12.86;93.50;101175.28;5058746;28;20033;-58
2022/06/07 04:25:41;;;;;;;10.82;6.22;;;;;;;12.97;91.80;101180.38;5058574;28;20103;-58
2022/06/07 04:28:07;;;;;;;9.15;5.70;;;;;;;12.86;92.75;101186.66;5058438;28;20351;-57
2022/06/07 04:30:33;;;;;;;9.30;5.95;;;;;;;12.87;92.65;101177.91;5058404;28;20033;-58
2022/06/07 04:32:58;;;;;;;12.20;6.50;;;;;;;12.90;92.86;101169.09;5058723;28;20033;-58
2022/06/07 04:35:24;;;;;;;10.77;6.20;;;;;;;12.89;92.93;101173.47;5058585;28;20394;-58
2022/06/07 04:37:49;;;;;;;8.45;6.20;;;;;;;12.93;93.08;101173.44;5058238;28;20032;-59
2022/06/07 04:40:16;;;;;;;9.35;6.07;;;;;;;12.98;91.97;101163.72;5058047;28;20439;-57
2022/06/07 04:42:43;;;;;;;11.50;6.47;;;;;;;13.00;92.04;101175.91;5058231;28;20037;-58
2022/06/07 04:45:11;;;;;;;8.63;6.28;;;;;;;13.04;92.31;101181.97;5058153;28;20438;-58
2022/06/07 04:47:37;;;;;;;11.18;7.18;;;;;;;13.12;92.71;101178.34;5058051;28;20029;-58
2022/06/07 04:50:04;;;;;;;10.25;6.22;;;;;;;13.15;91.98;101177.44;5058262;28;20052;-58
2022/06/07 04:52:29;;;;;;;11.07;6.20;;;;;;;13.24;91.54;101177.25;5057955;28;20439;-56
2022/06/07 04:54:55;;;;;;;10.10;7.00;;;;;;;13.27;91.21;101178.97;5057730;28;20048;-58
2022/06/07 04:57:20;;;;;;;8.95;6.13;;;;;;;13.35;91.15;101174.41;5059839;28;20098;-58
2022/06/07 04:59:46;;;;;;;9.13;6.70;;;;;;;13.33;91.12;101182.34;5067670;28;20494;-58
2022/06/07 05:02:11;;;;;;;11.93;6.80;;;;;;;13.34;90.45;101180.56;5078186;28;20035;-57
2022/06/07 05:04:37;;;;;;;11.00;6.63;;;;;;;13.39;90.38;101187.47;5077947;28;20036;-56
2022/06/07 05:07:02;;;;;;;9.02;7.20;;;;;;;13.39;89.81;101182.22;5076278;28;20043;-55
2022/06/07 05:09:29;;;;;;;11.90;6.88;;;;;;;13.40;91.01;101189.22;5077567;28;20033;-56
2022/06/07 05:11:54;;;;;;;13.07;7.35;;;;;;;13.41;90.14;101183.06;5077729;28;20040;-55
2022/06/07 05:14:21;;;;;;;12.63;7.15;;;;;;;13.44;91.05;101195.28;5077795;28;20351;-55
2022/06/07 05:16:48;;;;;;;10.27;7.10;;;;;;;13.42;89.93;101189.19;5077866;28;20031;-55
2022/06/07 05:19:13;;;;;;;10.63;7.53;;;;;;;13.45;90.32;101197.88;5077587;28;20047;-56
2022/06/07 05:21:40;;;;;;;12.07;7.68;;;;;;;13.43;89.93;101196.16;5077491;28;20392;-57
2022/06/07 05:24:06;;;;;;;11.10;6.97;;;;;;;13.48;90.19;101195.19;5077403;28;20060;-55
2022/06/07 05:26:38;;;;;;;9.88;7.35;;;;;;;13.47;90.70;101200.47;5077381;28;20111;-55
2022/06/07 05:29:04;;;;;;;11.52;7.55;;;;;;;13.53;89.27;101201.22;5077429;28;20086;-55
2022/06/07 05:31:31;;;;;;;12.60;7.57;;;;;;;13.50;88.99;101203.06;5077092;28;20131;-57
2022/06/07 05:33:57;;;;;;;9.60;7.20;;;;;;;13.45;90.02;101204.91;5077308;28;20056;-57
2022/06/07 05:36:22;;;;;;;11.48;8.30;;;;;;;13.49;89.48;101203.94;5077078;28;20036;-56
2022/06/07 05:38:48;;;;;;;12.38;8.05;;;;;;;13.53;89.99;101189.81;5077141;28;20032;-54
2022/06/07 05:41:20;;;;;;;14.55;8.63;;;;;;;13.53;90.39;101198.56;5077099;28;20048;-58
2022/06/07 05:43:46;;;;;;;;;;;;;;;13.81;89.25;101192.78;5077417;28;20032;-57
2022/06/07 05:46:11;;;;;;;12.02;7.70;;;;;;;13.69;89.61;101193.00;5076868;28;19913;-59
2022/06/07 05:48:36;;;;;;;15.05;8.07;;;;;;;13.71;90.61;101188.59;5077087;28;20350;-60
2022/06/07 05:51:02;;;;;;;11.90;8.13;;;;;;;13.71;90.19;101197.34;5076360;28;20040;-59
2022/06/07 05:53:28;;;;;;;15.63;8.35;;;;;;;13.71;90.19;101199.97;5076702;28;20427;-59
2022/06/07 05:55:54;;;;;;;15.30;8.10;;;;;;;13.73;89.54;101199.94;5076485;28;20063;-59
2022/06/07 05:58:19;;;;;;;14.27;8.95;;;;;;;13.65;89.86;101199.25;5076702;28;20044;-59
2022/06/07 06:00:46;;;;;;;14.55;8.82;;;;;;;13.68;90.54;101204.44;5076869;28;20367;-58
2022/06/07 06:03:12;;;;;;;12.70;8.63;;;;;;;13.72;90.12;101199.06;5077279;28;20412;-59
2022/06/07 06:05:46;;;;;;;15.73;8.93;;;;;;;13.78;90.80;101198.09;5076494;28;20034;-60
2022/06/07 06:11:23;;;;;;;15.38;9.57;;;;;;;14.13;90.43;101198.19;5076549;28;20108;-59
2022/06/07 06:13:49;;;;;;;14.48;9.68;;;;;;;14.21;89.65;101204.13;5062982;28;20032;-56
2022/06/07 06:16:19;;;;;;;18.52;9.85;;;;;;;14.36;89.19;101207.34;5058415;28;20111;-58
2022/06/07 06:18:47;;;;;;;16.15;9.88;;;;;;;14.38;88.29;101202.88;5055737;28;20123;-59
2022/06/07 06:21:15;;;;;;;13.32;9.50;;;;;;;14.49;89.61;101199.16;5056384;28;20043;-58
2022/06/07 06:23:40;;;;;;;14.43;9.80;;;;;;;14.63;88.45;101204.09;5055951;28;20075;-56
2022/06/07 06:26:10;;;;;;;17.27;9.85;;;;;;;14.78;89.05;101198.44;5056473;28;20060;-59
2022/06/07 06:28:37;;;;;;;14.55;9.52;;;;;;;14.91;88.59;101193.69;5055832;28;20032;-58
2022/06/07 06:31:05;;;;;;;12.70;9.60;;;;;;;14.97;86.42;101193.56;5055443;28;20044;-59
2022/06/07 06:33:30;;;;;;;15.68;10.02;;;;;;;15.06;85.97;101195.97;5055866;28;20467;-58
2022/06/07 06:35:56;;;;;;;14.18;9.93;;;;;;;15.11;86.38;101188.78;5056122;28;20065;-57
2022/06/07 06:38:22;;;;;;;13.32;10.15;;;;;;;15.17;85.65;101199.19;5056070;28;20025;-57
2022/06/07 06:40:48;;;;;;;14.75;9.82;;;;;;;15.12;88.09;101195.78;5055909;28;20056;-57
2022/06/07 06:43:15;;;;;;;14.85;9.55;;;;;;;15.13;87.20;101200.16;5056174;28;20538;-58
2022/06/07 06:45:42;;;;;;;16.98;10.43;;;;;;;15.16;87.89;101191.31;5055855;28;20025;-58
2022/06/07 06:48:09;;;;;;;16.20;10.23;;;;;;;15.27;87.30;101197.16;5055256;28;20133;-57
2022/06/07 06:50:36;;;;;;;13.90;9.75;;;;;;;15.36;87.38;101199.56;5055375;28;20478;-57
2022/06/07 06:53:02;;;;;;;14.45;9.57;;;;;;;15.30;86.01;101195.28;5055449;28;20072;-56
2022/06/07 06:55:28;;;;;;;15.30;10.02;;;;;;;15.30;86.93;101199.69;5054978;28;20063;-58
2022/06/07 06:57:54;;;;;;;14.30;10.30;;;;;;;15.34;86.47;101201.34;5054705;28;20268;-58
2022/06/07 07:00:19;;;;;;;16.23;10.05;;;;;;;15.41;85.84;101205.53;5055138;28;20436;-57
2022/06/07 07:02:46;;;;;;;15.55;10.15;;;;;;;15.53;86.69;101207.00;5055090;28;20056;-58
2022/06/07 07:05:13;;;;;;;14.50;10.40;;;;;;;15.65;85.57;101215.44;5055093;28;20033;-57
2022/06/07 07:07:40;;;;;;;16.67;10.90;;;;;;;15.79;83.44;101216.81;5054638;28;20057;-57
2022/06/07 07:10:07;;;;;;;14.00;11.07;;;;;;;15.83;83.66;101218.47;5055033;28;20080;-57
2022/06/07 07:12:33;;;;;;;16.30;11.90;;;;;;;15.90;83.92;101212.97;5054712;28;20048;-57
2022/06/07 07:14:59;;;;;;;16.75;11.18;;;;;;;16.04;83.87;101214.34;5055016;28;20025;-57
2022/06/07 07:17:25;;;;;;;20.15;12.05;;;;;;;16.10;83.39;101217.69;5055037;28;20158;-58
2022/06/07 07:19:51;;;;;;;17.27;11.70;;;;;;;16.08;83.64;101211.56;5055000;28;20044;-57
2022/06/07 07:22:17;;;;;;;19.60;13.20;;;;;;;15.97;83.70;101218.94;5055609;28;20037;-57
2022/06/07 07:24:42;;;;;;;18.17;11.95;;;;;;;15.95;85.58;101207.53;5055279;28;20122;-57
2022/06/07 07:27:07;;;;;;;18.58;13.02;;;;;;;15.95;85.89;101207.53;5055774;28;20423;-57
2022/06/07 07:29:33;;;;;;;18.02;13.07;;;;;;;15.99;85.32;101203.91;5055158;28;20161;-58
2022/06/07 07:31:58;;;;;;;20.52;14.60;;;;;;;16.10;84.23;101199.19;5055678;28;20412;-57
2022/06/07 07:34:23;;;;;;;19.77;13.30;;;;;;;16.29;84.77;101205.59;5055500;28;20051;-57
2022/06/07 07:36:51;;;;;;;21.55;14.65;;;;;;;16.53;85.43;101203.97;5055372;28;20028;-57
2022/06/07 07:39:17;;;;;;;18.95;13.38;;;;;;;16.69;83.81;101207.88;5055227;28;20047;-58
2022/06/07 07:41:45;;;;;;;20.17;13.35;;;;;;;16.85;83.89;101202.09;5054629;28;20491;-58
2022/06/07 07:44:13;;;;;;;16.00;12.85;;;;;;;17.01;83.75;101198.88;5048277;28;20478;-58
2022/06/07 07:46:40;;;;;;;16.65;12.55;;;;;;;17.03;83.20;101198.81;5053645;28;20086;-58
2022/06/07 07:49:07;;;;;;;16.05;12.30;;;;;;;17.01;81.66;101204.16;5054601;28;20056;-57
2022/06/07 07:51:35;;;;;;;18.58;13.05;;;;;;;16.82;82.15;101192.47;5054496;28;20079;-58
2022/06/07 07:54:02;;;;;;;17.73;13.15;;;;;;;16.79;83.79;101202.31;5054212;28;20037;-59
2022/06/07 07:56:28;;;;;;;17.08;12.63;;;;;;;16.76;82.49;101205.91;5054226;28;20037;-58
2022/06/07 07:58:54;;;;;;;19.80;13.70;;;;;;;16.70;81.38;101203.47;5054246;28;20044;-58
2022/06/07 08:01:22;;;;;;;19.60;13.27;;;;;;;16.74;83.77;101194.53;5053911;28;20452;-58
2022/06/07 08:03:48;;;;;;;18.88;13.07;;;;;;;16.97;81.02;101197.22;5053973;28;20093;-58
2022/06/07 08:06:17;;;;;;;17.33;12.82;;;;;;;17.24;81.54;101197.22;5054172;28;20033;-58
2022/06/07 08:08:43;;;;;;;15.75;11.73;;;;;;;17.51;80.40;101193.56;5053698;28;20025;-58
2022/06/07 08:11:09;;;;;;;14.50;12.35;;;;;;;17.69;80.59;101189.41;5054237;28;20025;-58
2022/06/07 08:13:34;;;;;;;19.63;13.77;;;;;;;17.76;79.17;101187.41;5053574;28;20025;-58
2022/06/07 08:16:00;;;;;;;19.77;13.63;;;;;;;17.98;79.12;101191.84;5054485;28;20034;-58
2022/06/07 08:18:26;;;;;;;15.15;12.35;;;;;;;18.05;76.98;101189.78;5054829;28;20029;-57
2022/06/07 08:20:57;;;;;;;16.10;12.38;;;;;;;18.05;77.48;101197.75;5054074;28;20376;-58
2022/06/07 08:23:23;;;;;;;16.67;13.00;;;;;;;18.17;76.88;101189.34;5048165;28;20045;-58
2022/06/07 08:25:48;;;;;;;15.55;12.18;;;;;;;18.51;75.99;101190.66;5054230;28;20029;-58
2022/06/07 08:28:14;;;;;;;13.38;11.45;;;;;;;18.53;74.93;101186.16;5054177;28;20040;-59
2022/06/07 08:30:44;;;;;;;15.43;12.02;;;;;;;18.60;75.46;101191.16;5054104;28;20029;-58
2022/06/07 08:38:36;;;;;;;15.95;11.70;;;;;;;18.59;75.16;101185.91;5053796;28;20126;-58
2022/06/07 08:41:02;;;;;;;12.65;10.52;;;;;;;18.59;75.81;101192.06;5054432;28;20427;-58
2022/06/07 08:43:28;;;;;;;15.32;11.32;;;;;;;18.46;74.72;101187.31;5053789;28;20036;-57
2022/06/07 08:45:55;;;;;;;16.38;14.25;;;;;;;18.27;75.42;101193.34;5053774;28;20064;-58
2022/06/07 08:48:26;;;;;;;14.90;11.52;;;;;;;18.13;75.79;101186.88;5053799;28;20041;-59
2022/06/07 08:51:11;;;;;;;15.10;11.98;;;;;;;18.18;76.33;101191.06;5053746;28;20025;-59
2022/06/07 08:53:39;;;;;;;15.18;13.10;;;;;;;18.33;75.70;101186.94;5052437;28;20451;-59
2022/06/07 08:56:16;;;;;;;14.00;12.48;;;;;;;18.90;73.06;101193.44;5057648;28;20472;-58
2022/06/07 08:58:47;;;;;;;13.02;10.32;;;;;;;19.10;70.76;101181.06;5057330;28;20028;-60
2022/06/07 09:01:42;;;;;;;18.48;11.23;;;;;;;19.37;71.69;101184.31;5057594;28;20039;-58
2022/06/07 09:04:29;;;;;;;13.93;12.35;;;;;;;19.68;70.42;101180.31;5055879;28;20025;-58
2022/06/07 09:07:00;;;;;;;16.42;12.75;;;;;;;20.14;65.76;101179.88;5057551;28;20056;-59
2022/06/07 09:12:17;;;;;;;11.00;9.00;;;;;;;21.57;61.27;101176.22;5057625;28;20040;-58
2022/06/07 09:14:53;;;;;;;11.70;8.43;;;;;;;22.00;57.81;101170.28;5057535;28;20036;-59
2022/06/07 09:17:33;;;;;;;11.05;8.55;;;;;;;21.97;58.40;101175.78;5057596;28;20029;-58
2022/06/07 09:20:00;;;;;;;10.23;8.68;;;;;;;21.87;59.86;101172.75;5057602;28;20403;-58
2022/06/07 09:22:37;;;;;;;8.63;7.38;;;;;;;22.04;60.15;101170.97;5057174;28;20037;-58
2022/06/07 09:25:06;;;;;;;7.82;7.03;;;;;;;21.44;57.69;101173.38;5057826;28;20448;-60
2022/06/07 09:27:33;;;;;;;7.85;6.07;;;;;;;21.79;58.19;101169.66;5057254;28;20527;-59
2022/06/07 09:30:06;;;;;;;7.45;5.60;;;;;;;22.56;54.19;101167.06;5057344;28;20069;-59
2022/06/07 09:32:33;;;;;;;7.80;5.05;;;;;;;22.82;52.54;101167.41;5057117;28;20041;-59
2022/06/07 09:35:02;;;;;;;6.70;5.50;;;;;;;22.41;53.75;101164.44;5057271;28;20029;-60
2022/06/07 09:37:37;;;;;;;8.35;6.25;;;;;;;21.87;55.42;101166.56;5056192;28;20036;-59
2022/06/07 09:40:28;;;;;;;7.50;5.68;;;;;;;21.61;59.83;101159.16;5055323;28;20052;-58
2022/06/07 09:43:00;;;;;;;10.50;7.60;;;;;;;20.94;57.58;101171.53;5056642;28;20064;-59
2022/06/07 09:45:29;;;;;;;10.65;7.95;;;;;;;20.57;58.59;101172.50;5056986;28;20423;-59
2022/06/07 09:47:55;;;;;;;11.02;8.00;;;;;;;20.28;61.30;101175.69;5056872;28;20511;-59
2022/06/07 09:50:37;;;;;;;9.25;7.47;;;;;;;20.19;63.16;101170.81;5056653;28;20104;-58
2022/06/07 09:53:14;;;;;;;10.70;8.27;;;;;;;19.94;62.68;101177.28;5056897;28;20029;-59
2022/06/07 09:56:01;;;;;;;13.18;7.97;;;;;;;19.68;64.84;101170.53;5057032;28;20091;-58
2022/06/07 09:58:53;;;;;;;8.65;7.45;;;;;;;19.88;64.26;101161.66;5054453;28;20040;-59
2022/06/07 10:01:32;;;;;;;10.13;6.90;;;;;;;19.76;64.09;101162.19;5056887;28;20101;-59
2022/06/07 10:04:10;;;;;;;7.40;6.68;;;;;;;19.74;64.76;101158.78;5055184;28;20471;-58
2022/06/07 10:06:43;;;;;;;10.45;6.50;;;;;;;19.75;63.21;101165.78;5054960;28;20040;-58
2022/06/07 10:09:18;;;;;;;6.93;5.18;;;;;;;19.80;64.67;101156.69;5056588;28;20083;-58
2022/06/07 10:12:34;;;;;;;6.35;4.97;;;;;;;20.00;65.16;101163.72;5056113;28;20117;-59
2022/06/07 10:15:11;;;;;;;7.22;4.90;;;;;;;19.86;64.85;101160.00;5030612;28;20037;-58
2022/06/07 10:18:15;;;;;;;7.88;4.85;;;;;;;19.99;63.75;101163.78;5056799;28;20115;-59
2022/06/07 10:20:54;;;;;;;6.57;4.35;;;;;;;20.16;61.34;101163.84;5056432;28;20167;-58
2022/06/07 10:23:41;;;;;;;5.43;4.25;;;;;;;20.28;60.66;101144.63;5056606;28;20029;-58
2022/06/07 10:26:44;;;;;;;5.32;3.97;;;;;;;20.60;61.48;101140.44;5056340;28;20040;-60
2022/06/07 10:29:44;;;;;;;4.70;4.10;;;;;;;20.84;59.60;101144.50;5056473;28;20083;-59
2022/06/07 10:32:35;;;;;;;5.68;4.20;;;;;;;20.83;60.54;101142.78;5056423;28;20052;-58
2022/06/07 10:35:15;;;;;;;6.28;4.35;;;;;;;20.58;59.44;101147.63;5056044;28;20036;-59
2022/06/07 10:37:59;;;;;;;6.20;4.25;;;;;;;20.44;61.21;101147.44;5056295;28;20067;-59
2022/06/07 10:40:37;;;;;;;6.70;4.72;;;;;;;20.13;60.94;101156.03;5056203;28;20427;-59
2022/06/07 10:43:18;;;;;;;6.57;4.18;;;;;;;19.95;61.50;101155.09;5056049;28;20032;-59
2022/06/07 10:45:45;;;;;;;6.93;4.47;;;;;;;19.76;62.26;101147.13;5055908;28;20128;-58
2022/06/07 10:48:14;;;;;;;9.13;4.40;;;;;;;19.75;62.35;101150.72;5055264;28;20123;-59
2022/06/07 10:50:53;;;;;;;4.70;3.58;;;;;;;19.94;62.64;101147.19;5055888;28;20036;-59
2022/06/07 10:53:44;;;;;;;5.72;3.97;;;;;;;20.09;62.05;101146.47;5055574;28;20056;-58
2022/06/07 10:56:36;;;;;;;5.95;3.90;;;;;;;20.15;62.34;101144.38;5056092;28;20079;-59
2022/06/07 10:59:15;;;;;;;9.15;3.80;;;;;;;20.55;61.59;101142.47;5055227;28;20040;-62
2022/06/07 11:01:52;;;;;;;5.18;3.20;;;;;;;20.48;60.25;101141.91;5054595;28;20395;-59
2022/06/07 11:10:08;;;;;;;5.05;2.92;;;;;;;20.14;60.35;101144.47;5035831;28;20052;-61
2022/06/07 11:12:44;;;;;;;6.18;3.50;;;;;;;20.63;59.65;101140.25;5035257;28;20443;-60
2022/06/07 11:15:18;;;;;;;5.70;3.47;;;;;;;20.87;56.66;101132.00;5035592;28;20033;-58
2022/06/07 11:17:54;;;;;;;5.25;3.25;;;;;;;21.10;56.00;101129.00;5036322;28;20037;-59
2022/06/07 11:20:25;;;;;;;5.53;2.80;;;;;;;21.25;56.38;101133.53;5055473;28;20082;-58
2022/06/07 11:23:05;;;;;;;5.00;2.60;;;;;;;21.33;56.24;101136.66;5055258;28;20045;-58
2022/06/07 11:25:37;;;;;;;5.93;2.55;;;;;;;21.61;56.55;101132.50;5055543;28;20036;-58
2022/06/07 11:28:12;;;;;;;4.80;2.40;;;;;;;21.64;54.49;101140.34;5055017;28;20485;-59
2022/06/07 11:30:37;;;;;;;4.90;2.20;;;;;;;21.70;54.11;101132.84;5055358;28;20469;-59
2022/06/07 11:33:25;;;;;;;3.97;1.48;;;;;;;21.73;55.52;101130.03;5055128;28;20107;-58
2022/06/07 11:36:03;;;;;;;5.10;2.33;;;;;;;21.65;53.21;101132.22;5054903;28;20116;-59
2022/06/07 11:38:31;;;;;;;4.97;1.90;;;;;;;21.59;54.02;101127.25;5055016;28;20028;-58
2022/06/07 11:44:11;;;;;;;3.80;1.50;;;;;;;21.37;55.88;101121.38;5052212;28;20166;-59
2022/06/07 11:46:50;;;;;;;4.35;1.80;;;;;;;21.24;55.32;101139.81;5054020;28;20432;-59
2022/06/07 11:49:18;;;;;;;5.50;2.40;;;;;;;21.09;56.01;101122.81;5054672;28;20044;-59
2022/06/07 11:52:11;;;;;;;5.55;2.03;;;;;;;21.14;56.66;101126.06;5054305;28;20029;-60